Time;durP1;ratioP1;P1;durP2;ratioP2;P2;SDS_P1;SDS_P2;PMS_P1;PMS_P2;Temp;Humidity;BMP_temperature;BMP_pressure;BME280_temperature;BME280_humidity;BME280_pressure;Samples;Min_cycle;Max_cycle;Signal;HPM_P1;HPM_P2
2022/03/22 00:01:37;;;;;;;1999.90;999.90;;;;;;;1.43;32.60;102977.75;4934730;28;99384;-76
2022/03/22 00:04:05;;;;;;;1999.90;999.90;;;;;;;1.04;33.13;102974.00;4937758;28;99282;-75
2022/03/22 00:06:33;;;;;;;1999.90;999.90;;;;;;;0.90;32.86;102977.03;4942203;28;97409;-77
2022/03/22 00:09:00;;;;;;;1999.90;999.90;;;;;;;0.81;32.93;102978.78;4941775;28;97773;-76
2022/03/22 00:11:28;;;;;;;1999.90;999.90;;;;;;;0.73;33.07;102975.44;4938118;28;100261;-77
2022/03/22 00:13:57;;;;;;;1999.90;999.90;;;;;;;0.66;33.04;102972.06;4938775;28;98034;-75
2022/03/22 00:16:24;;;;;;;1999.90;999.90;;;;;;;0.61;33.07;102978.56;4942200;28;97381;-76
2022/03/22 00:19:13;;;;;;;1999.90;999.90;;;;;;;0.53;33.23;102980.47;4937289;28;97638;-75
2022/03/22 00:21:41;;;;;;;1999.90;999.90;;;;;;;0.50;33.17;102979.25;4939814;28;97613;-75
2022/03/22 00:24:09;;;;;;;1999.90;999.90;;;;;;;0.45;33.32;102978.78;4941117;28;97710;-76
2022/03/22 00:26:36;;;;;;;1999.90;999.90;;;;;;;0.42;33.31;102974.94;4939757;28;97298;-75
2022/03/22 00:29:04;;;;;;;1999.90;999.90;;;;;;;0.38;33.50;102978.97;4940961;28;97815;-75
2022/03/22 00:31:32;;;;;;;1999.90;999.90;;;;;;;0.34;33.24;102978.53;4941566;28;97838;-75
2022/03/22 00:34:00;;;;;;;1999.90;999.90;;;;;;;0.30;33.54;102981.63;4941285;28;97607;-75
2022/03/22 00:36:31;;;;;;;1999.90;999.90;;;;;;;0.26;33.30;102982.09;4940929;28;97483;-75
2022/03/22 00:38:58;;;;;;;1999.90;999.90;;;;;;;0.20;33.09;102985.94;4943107;28;98689;-75
2022/03/22 00:41:26;;;;;;;1999.90;999.90;;;;;;;0.17;33.34;102988.22;4939199;28;99555;-75
2022/03/22 00:43:54;;;;;;;1999.90;999.90;;;;;;;0.13;33.37;102991.34;4941431;28;97179;-76
2022/03/22 00:46:21;;;;;;;1999.90;999.90;;;;;;;0.09;33.26;102994.44;4940071;28;97207;-75
2022/03/22 00:48:49;;;;;;;1999.90;999.90;;;;;;;0.07;33.34;102988.13;4944756;28;98343;-75
2022/03/22 00:51:17;;;;;;;1999.90;999.90;;;;;;;0.05;33.13;102992.28;4943911;28;98711;-75
2022/03/22 00:53:47;;;;;;;1999.90;999.90;;;;;;;0.00;33.20;102983.06;4943286;28;97848;-75
2022/03/22 00:56:14;;;;;;;1999.90;999.90;;;;;;;-0.02;33.31;102995.06;4944395;28;96807;-75
2022/03/22 00:58:42;;;;;;;1999.90;999.90;;;;;;;-0.05;33.37;102991.22;4941697;28;98696;-77
2022/03/22 01:01:10;;;;;;;1999.90;999.90;;;;;;;-0.10;33.31;102993.38;4942416;28;98817;-76
2022/03/22 01:03:38;;;;;;;1999.90;999.90;;;;;;;-0.12;33.25;102991.41;4940778;28;96902;-76
2022/03/22 01:06:08;;;;;;;1999.90;999.90;;;;;;;-0.16;33.39;102986.63;4942235;28;97647;-76
2022/03/22 01:08:37;;;;;;;1999.90;999.90;;;;;;;-0.21;33.64;102995.72;4945167;28;99064;-76
2022/03/22 01:11:06;;;;;;;1999.90;999.90;;;;;;;-0.26;33.72;102984.78;4942432;28;99102;-76
2022/03/22 01:13:33;;;;;;;1999.90;999.90;;;;;;;-0.28;33.50;102982.81;4940984;28;97882;-76
2022/03/22 01:16:02;;;;;;;1999.90;999.90;;;;;;;-0.29;33.73;102980.94;4945144;28;96825;-75
2022/03/22 01:18:29;;;;;;;1999.90;999.90;;;;;;;-0.30;33.31;102989.59;4943921;28;98018;-76
2022/03/22 01:20:57;;;;;;;1999.90;999.90;;;;;;;-0.32;33.71;102986.78;4938649;28;100857;-77
2022/03/22 01:23:27;;;;;;;1999.90;999.90;;;;;;;-0.34;33.59;102980.50;4943896;28;97148;-76
2022/03/22 01:25:56;;;;;;;1999.90;999.90;;;;;;;-0.37;33.70;102985.41;4943452;28;97458;-76
2022/03/22 01:28:25;;;;;;;1999.90;999.90;;;;;;;-0.40;33.78;102978.94;4927184;28;97654;-76
2022/03/22 01:30:53;;;;;;;1999.90;999.90;;;;;;;-0.42;34.09;102978.81;4943913;28;98397;-77
2022/03/22 01:33:20;;;;;;;1999.90;999.90;;;;;;;-0.43;33.72;102978.66;4945223;28;97195;-76
2022/03/22 01:35:48;;;;;;;1999.90;999.90;;;;;;;-0.45;33.91;102985.44;4943505;28;99480;-76
2022/03/22 01:38:16;;;;;;;1999.90;999.90;;;;;;;-0.47;33.57;102982.66;4943287;28;97599;-77
2022/03/22 01:40:44;;;;;;;1999.90;999.90;;;;;;;-0.48;33.82;102978.19;4945318;28;97556;-77
2022/03/22 01:43:13;;;;;;;1999.90;999.90;;;;;;;-0.50;33.94;102971.88;4943517;28;96945;-77
2022/03/22 01:45:42;;;;;;;1999.90;999.90;;;;;;;-0.52;33.89;102970.78;4942792;28;97100;-76
2022/03/22 01:48:10;;;;;;;1999.90;999.90;;;;;;;-0.55;33.53;102970.50;4943310;28;98850;-77
2022/03/22 01:50:38;;;;;;;1999.90;999.90;;;;;;;0.01;33.26;102969.19;4942769;28;98897;-76
2022/03/22 01:53:09;;;;;;;1999.90;999.90;;;;;;;-0.34;33.81;102969.13;4941894;28;97740;-77
2022/03/22 01:55:36;;;;;;;1999.90;999.90;;;;;;;-0.45;34.03;102973.28;4944886;28;96823;-75
2022/03/22 01:58:04;;;;;;;1999.90;999.90;;;;;;;-0.51;33.77;102970.03;4943721;28;99506;-75
2022/03/22 02:00:32;;;;;;;1999.90;999.90;;;;;;;-0.57;34.17;102966.81;4941563;28;99436;-76
2022/03/22 02:05:55;;;;;;;1999.90;999.90;;;;;;;-0.64;34.33;102963.41;4943592;28;98928;-77
2022/03/22 02:08:28;;;;;;;1999.90;999.90;;;;;;;-0.71;33.87;102967.13;4943050;28;98529;-76
2022/03/22 02:10:58;;;;;;;1999.90;999.90;;;;;;;-0.71;33.85;102963.56;4944504;28;98910;-76
2022/03/22 02:13:26;;;;;;;1999.90;999.90;;;;;;;-0.75;33.89;102958.78;4942538;28;97719;-76
2022/03/22 02:15:57;;;;;;;1999.90;999.90;;;;;;;-0.77;33.84;102961.25;4944117;28;97749;-76
2022/03/22 02:18:27;;;;;;;1999.90;999.90;;;;;;;-0.79;34.00;102954.06;4941029;28;98412;-75
2022/03/22 02:20:54;;;;;;;1999.90;999.90;;;;;;;-0.80;34.13;102955.75;4941150;28;97871;-76
2022/03/22 02:23:42;;;;;;;1999.90;999.90;;;;;;;-0.84;34.71;102954.50;4942228;28;97221;-76
2022/03/22 02:26:10;;;;;;;1999.90;999.90;;;;;;;-0.83;34.63;102955.44;4944748;28;96946;-75
2022/03/22 02:28:38;;;;;;;1999.90;999.90;;;;;;;-0.86;34.69;102955.09;4946222;28;97803;-76
2022/03/22 02:31:05;;;;;;;1999.90;999.90;;;;;;;-0.89;34.72;102946.97;4942963;28;100239;-75
2022/03/22 02:33:33;;;;;;;1999.90;999.90;;;;;;;-0.90;34.40;102947.72;4946736;28;97211;-77
2022/03/22 02:36:01;;;;;;;1999.90;999.90;;;;;;;-0.90;34.79;102959.09;4942773;28;98112;-76
2022/03/22 02:38:29;;;;;;;1999.90;999.90;;;;;;;-0.92;34.41;102950.19;4944249;28;99293;-77
2022/03/22 02:40:58;;;;;;;1999.90;999.90;;;;;;;-0.91;34.89;102956.34;4945748;28;98698;-76
2022/03/22 02:43:26;;;;;;;1999.90;999.90;;;;;;;-0.92;35.27;102949.25;4944863;28;96854;-77
2022/03/22 02:45:54;;;;;;;1999.90;999.90;;;;;;;-0.91;35.20;102956.34;4945534;28;97238;-78
2022/03/22 02:48:21;;;;;;;1999.90;999.90;;;;;;;-0.93;35.00;102955.25;4943382;28;98327;-77
2022/03/22 02:50:49;;;;;;;1999.90;999.90;;;;;;;-0.93;34.63;102952.66;4946502;28;98650;-78
2022/03/22 02:53:18;;;;;;;1999.90;999.90;;;;;;;-0.95;35.17;102959.41;4942917;28;97656;-75
2022/03/22 02:55:45;;;;;;;1999.90;999.90;;;;;;;-0.96;35.25;102949.72;4945039;28;97230;-76
2022/03/22 02:58:14;;;;;;;1999.90;999.90;;;;;;;-0.96;34.95;102960.19;4943325;28;98011;-75
2022/03/22 03:00:44;;;;;;;1999.90;999.90;;;;;;;-0.98;35.29;102953.88;4942783;28;96936;-76
2022/03/22 03:03:11;;;;;;;1999.90;999.90;;;;;;;-0.98;35.02;102953.88;4925144;28;96865;-75
2022/03/22 03:05:39;;;;;;;1999.90;999.90;;;;;;;-1.00;35.26;102950.19;4941945;28;96904;-75
2022/03/22 03:08:07;;;;;;;1999.90;999.90;;;;;;;-1.01;35.56;102953.53;4942179;28;99102;-74
2022/03/22 03:10:35;;;;;;;1999.90;999.90;;;;;;;-1.03;35.45;102952.50;4958271;28;98779;-76
2022/03/22 03:13:05;;;;;;;1999.90;999.90;;;;;;;-1.04;35.66;102950.63;4943718;28;97524;-75
2022/03/22 03:15:34;;;;;;;1999.90;999.90;;;;;;;-1.03;35.73;102955.09;4942105;28;96967;-76
2022/03/22 03:18:02;;;;;;;1999.90;999.90;;;;;;;-1.04;35.40;102956.78;4941473;28;97673;-75
2022/03/22 03:20:30;;;;;;;1999.90;999.90;;;;;;;-1.06;35.22;102954.78;4942250;28;97848;-75
2022/03/22 03:22:58;;;;;;;1999.90;999.90;;;;;;;-1.08;35.25;102949.41;4942738;28;98290;-75
2022/03/22 03:25:26;;;;;;;1999.90;999.90;;;;;;;-1.09;35.48;102955.41;4940347;28;97715;-75
2022/03/22 03:27:54;;;;;;;1999.90;999.90;;;;;;;-1.09;35.18;102954.47;4942664;28;98897;-75
2022/03/22 03:30:21;;;;;;;1999.90;999.90;;;;;;;-1.12;35.98;102952.47;4942492;28;97629;-75
2022/03/22 03:32:50;;;;;;;1999.90;999.90;;;;;;;-1.13;35.99;102957.53;4942532;28;97032;-75
2022/03/22 03:35:18;;;;;;;1999.90;999.90;;;;;;;-1.14;35.96;102955.69;4944191;28;97185;-75
2022/03/22 03:37:46;;;;;;;1999.90;999.90;;;;;;;-1.13;35.43;102952.31;4957784;28;100322;-74
2022/03/22 03:40:14;;;;;;;1999.90;999.90;;;;;;;-1.13;35.39;102960.13;4940479;28;99173;-75
2022/03/22 03:42:45;;;;;;;1999.90;999.90;;;;;;;-1.14;35.96;102956.59;4942928;28;96904;-75
2022/03/22 03:48:00;;;;;;;1999.90;999.90;;;;;;;-1.18;35.68;102963.97;4940599;28;99081;-75
2022/03/22 03:50:28;;;;;;;1999.90;999.90;;;;;;;-1.19;35.42;102962.13;4940350;28;99012;-76
2022/03/22 03:52:56;;;;;;;1999.90;999.90;;;;;;;-1.19;35.45;102962.13;4942604;28;97440;-75
2022/03/22 03:55:24;;;;;;;1999.90;999.90;;;;;;;-1.20;36.18;102965.50;4936482;28;97545;-76
2022/03/22 03:57:51;;;;;;;1999.90;999.90;;;;;;;-1.20;35.81;102962.91;4936439;28;97786;-76
2022/03/22 04:00:19;;;;;;;1999.90;999.90;;;;;;;-1.23;36.04;102963.50;4935718;28;98081;-76
2022/03/22 04:02:47;;;;;;;1999.90;999.90;;;;;;;-1.24;36.30;102959.03;4939867;28;97652;-76
2022/03/22 04:05:16;;;;;;;1999.90;999.90;;;;;;;-0.64;35.79;102956.50;4938437;28;97824;-75
2022/03/22 04:07:44;;;;;;;1999.90;999.90;;;;;;;-0.38;35.80;102953.88;4940853;28;99209;-76
2022/03/22 04:10:12;;;;;;;1999.90;999.90;;;;;;;-0.77;36.65;102961.25;4941659;28;99402;-76
2022/03/22 04:12:41;;;;;;;1999.90;999.90;;;;;;;-0.90;36.28;102959.09;4941393;28;97622;-75
2022/03/22 04:15:09;;;;;;;1999.90;999.90;;;;;;;-0.97;36.16;102960.94;4942060;28;97666;-77
2022/03/22 04:17:38;;;;;;;1999.90;999.90;;;;;;;-1.02;36.59;102959.56;4939446;28;99621;-77
2022/03/22 04:20:07;;;;;;;1999.90;999.90;;;;;;;-1.05;36.20;102967.09;4941284;28;97790;-75
2022/03/22 04:22:36;;;;;;;1999.90;999.90;;;;;;;-1.08;36.72;102961.53;4942578;28;96815;-76
2022/03/22 04:25:05;;;;;;;1999.90;999.90;;;;;;;-1.11;36.11;102958.63;4946687;28;97958;-76
2022/03/22 04:33:04;;;;;;;1999.90;999.90;;;;;;;-1.22;36.13;102961.81;4946302;28;97967;-76
2022/03/22 04:35:33;;;;;;;1999.90;999.90;;;;;;;-1.27;36.43;102950.88;4947233;28;97082;-76
2022/03/22 04:38:02;;;;;;;1999.90;999.90;;;;;;;-1.31;36.60;102955.66;4927401;28;98778;-77
2022/03/22 04:40:31;;;;;;;1999.90;999.90;;;;;;;-1.34;36.10;102957.94;4946863;28;97637;-76
2022/03/22 04:42:59;;;;;;;1999.90;999.90;;;;;;;-1.37;36.29;102962.84;4942487;28;97039;-75
2022/03/22 04:45:27;;;;;;;1999.90;999.90;;;;;;;-1.40;36.35;102966.06;4945604;28;97315;-75
2022/03/22 04:47:54;;;;;;;1999.90;999.90;;;;;;;-1.44;37.06;102962.97;4945607;28;96791;-74
2022/03/22 04:50:22;;;;;;;1999.90;999.90;;;;;;;-1.46;37.05;102964.50;4943846;28;98622;-74
2022/03/22 04:58:22;;;;;;;1999.90;999.90;;;;;;;-1.54;37.13;102961.09;4942760;28;99021;-75
2022/03/22 05:00:50;;;;;;;1999.90;999.90;;;;;;;-1.56;36.65;102967.81;4945253;28;100476;-75
2022/03/22 05:03:18;;;;;;;1999.90;999.90;;;;;;;-1.58;37.12;102974.59;4945351;28;97834;-75
2022/03/22 05:08:33;;;;;;;1999.90;999.90;;;;;;;-1.01;36.53;102975.38;4926297;28;97916;-73
2022/03/22 05:11:02;;;;;;;1999.90;999.90;;;;;;;-1.38;37.57;102976.66;4945477;28;98741;-73
2022/03/22 05:13:29;;;;;;;1999.90;999.90;;;;;;;-1.50;37.13;102978.91;4945804;28;97864;-73
2022/03/22 05:15:57;;;;;;;1999.90;999.90;;;;;;;-1.57;37.50;102985.94;4942741;28;98238;-73
2022/03/22 05:18:26;;;;;;;1999.90;999.90;;;;;;;-1.62;37.79;102981.94;4945679;28;98788;-73
2022/03/22 05:20:54;;;;;;;1999.90;999.90;;;;;;;-1.04;36.99;102988.13;4937803;28;99418;-73
2022/03/22 05:23:22;;;;;;;1999.90;999.90;;;;;;;-0.83;36.99;102984.19;4942961;28;97642;-73
2022/03/22 05:25:50;;;;;;;1999.90;999.90;;;;;;;-0.72;36.32;102988.78;4954289;28;97869;-73
2022/03/22 05:28:19;;;;;;;1999.90;999.90;;;;;;;-1.18;37.00;102995.31;4938070;28;100165;-73
2022/03/22 05:30:47;;;;;;;1999.90;999.90;;;;;;;-1.37;37.17;102992.50;4940543;28;98976;-72
2022/03/22 05:33:15;;;;;;;1999.90;999.90;;;;;;;-1.47;37.44;102987.06;4936719;28;96988;-73
2022/03/22 05:35:42;;;;;;;1999.90;999.90;;;;;;;-1.55;37.85;102984.44;4940644;28;98086;-73
2022/03/22 05:38:10;;;;;;;1999.90;999.90;;;;;;;-1.61;37.83;102986.38;4941017;28;99015;-74
2022/03/22 05:40:39;;;;;;;1999.90;999.90;;;;;;;-1.65;37.49;102986.84;4943934;28;98836;-74
2022/03/22 05:43:07;;;;;;;1999.90;999.90;;;;;;;-1.69;37.64;102976.84;4942914;28;97438;-74
2022/03/22 05:45:36;;;;;;;1999.90;999.90;;;;;;;-1.10;36.75;102987.50;4941723;28;98483;-74
2022/03/22 05:48:07;;;;;;;1999.90;999.90;;;;;;;-0.89;36.62;102994.94;4941753;28;101467;-74
2022/03/22 05:50:35;;;;;;;1999.90;999.90;;;;;;;-0.76;36.09;102986.66;4941138;28;97655;-74
2022/03/22 05:53:03;;;;;;;1999.90;999.90;;;;;;;-1.19;37.08;103001.28;4925891;28;98950;-74
2022/03/22 05:55:31;;;;;;;1999.90;999.90;;;;;;;-1.34;36.71;102991.91;4943136;28;97794;-73
2022/03/22 05:57:58;;;;;;;1999.90;999.90;;;;;;;-1.42;36.87;102987.56;4946900;28;97101;-74
2022/03/22 06:00:26;;;;;;;1999.90;999.90;;;;;;;-1.46;37.15;102999.38;4944201;28;97983;-75
2022/03/22 06:02:56;;;;;;;1999.90;999.90;;;;;;;-0.90;36.64;103003.53;4927643;28;97376;-75
2022/03/22 06:05:24;;;;;;;1999.90;999.90;;;;;;;-1.23;36.84;103007.91;4946075;28;98521;-76
2022/03/22 06:07:52;;;;;;;1999.90;999.90;;;;;;;-1.30;36.58;103010.63;4944888;28;100332;-74
2022/03/22 06:10:20;;;;;;;1999.90;999.90;;;;;;;-0.76;36.08;103004.94;4944644;28;97642;-75
2022/03/22 06:12:51;;;;;;;1999.90;999.90;;;;;;;-0.54;35.95;103008.97;4943833;28;97739;-76
2022/03/22 06:15:21;;;;;;;1999.90;999.90;;;;;;;-0.92;36.38;103001.50;4945866;28;96864;-75
2022/03/22 06:17:50;;;;;;;1999.90;999.90;;;;;;;-1.03;37.04;103009.97;4943940;28;98317;-76
2022/03/22 06:20:21;;;;;;;1999.90;999.90;;;;;;;-0.53;35.70;103015.09;4940301;28;97792;-76
2022/03/22 06:22:48;;;;;;;1999.90;999.90;;;;;;;-0.84;36.41;103012.00;4942348;28;98273;-76
2022/03/22 06:25:17;;;;;;;1999.90;999.90;;;;;;;-0.37;35.45;103008.94;4941495;28;97294;-75
2022/03/22 06:27:47;;;;;;;1999.90;999.90;;;;;;;-0.17;35.08;103003.09;4923544;28;98847;-73
2022/03/22 06:30:16;;;;;;;1999.90;999.90;;;;;;;-0.58;35.86;103016.34;4940835;28;99197;-76
2022/03/22 06:32:46;;;;;;;1999.90;999.90;;;;;;;-0.20;35.20;103014.19;4942550;28;97893;-79
2022/03/22 06:35:14;;;;;;;1999.90;999.90;;;;;;;-0.04;35.15;103020.16;4939015;28;97623;-79
2022/03/22 06:37:44;;;;;;;1999.90;999.90;;;;;;;0.08;34.61;103017.84;4944829;28;100016;-79
2022/03/22 06:40:13;;;;;;;1999.90;999.90;;;;;;;-0.35;35.31;103022.19;4931497;28;100805;-79
2022/03/22 06:42:42;;;;;;;1999.90;999.90;;;;;;;-0.48;35.68;103025.25;4947779;28;97361;-79
2022/03/22 06:45:11;;;;;;;1999.90;999.90;;;;;;;-0.55;35.63;103025.41;4946020;28;96951;-80
2022/03/22 06:47:40;;;;;;;1999.90;999.90;;;;;;;-0.59;36.11;103025.88;4947666;28;98255;-79
2022/03/22 06:50:09;;;;;;;1999.90;999.90;;;;;;;-0.59;35.62;103036.31;4947603;28;99325;-79
2022/03/22 06:52:37;;;;;;;1999.90;999.90;;;;;;;-0.60;35.98;103029.25;4949150;28;96848;-79
2022/03/22 06:55:09;;;;;;;1999.90;999.90;;;;;;;-0.62;36.25;103033.41;4948545;28;98650;-78
2022/03/22 06:57:37;;;;;;;1999.90;999.90;;;;;;;-0.11;35.23;103029.88;4949444;28;97783;-79
2022/03/22 07:00:08;;;;;;;1999.90;999.90;;;;;;;0.18;34.43;103029.38;4944657;28;100217;-78
2022/03/22 07:02:38;;;;;;;1999.90;999.90;;;;;;;0.37;34.29;103032.13;4948833;28;96957;-79
2022/03/22 07:05:08;;;;;;;1999.90;999.90;;;;;;;-0.05;34.93;103041.88;4936658;28;97537;-79
2022/03/22 07:07:36;;;;;;;1999.90;999.90;;;;;;;-0.16;35.13;103042.50;4964543;28;98848;-79
2022/03/22 07:10:05;;;;;;;1999.90;999.90;;;;;;;-0.18;35.33;103044.03;4949146;28;97779;-78
2022/03/22 07:12:34;;;;;;;1999.90;999.90;;;;;;;-0.19;35.23;103046.53;4950246;28;96987;-78
2022/03/22 07:15:03;;;;;;;1999.90;999.90;;;;;;;-0.19;35.20;103044.78;4949484;28;96977;-77
2022/03/22 07:17:31;;;;;;;1999.90;999.90;;;;;;;-0.18;35.38;103048.34;4950141;28;97972;-79
2022/03/22 07:19:59;;;;;;;1999.90;999.90;;;;;;;-0.16;35.62;103047.75;4928310;28;99361;-73
2022/03/22 07:22:27;;;;;;;1999.90;999.90;;;;;;;-0.12;35.57;103057.72;4928560;28;97396;-74
2022/03/22 07:24:55;;;;;;;1999.90;999.90;;;;;;;-0.07;35.32;103059.13;4943050;28;99885;-72
2022/03/22 07:27:23;;;;;;;1999.90;999.90;;;;;;;-0.03;35.19;103056.03;4928052;28;100812;-72
2022/03/22 07:29:52;;;;;;;1999.90;999.90;;;;;;;0.05;35.14;103059.41;4946858;28;98444;-73
2022/03/22 07:32:20;;;;;;;1999.90;999.90;;;;;;;0.10;34.94;103058.19;4945121;28;96850;-73
2022/03/22 07:34:48;;;;;;;1999.90;999.90;;;;;;;0.13;35.55;103054.19;4944262;28;97101;-72
2022/03/22 07:37:15;;;;;;;1999.90;999.90;;;;;;;0.17;35.30;103060.63;4943743;28;98738;-72
2022/03/22 07:39:51;;;;;;;1999.90;999.90;;;;;;;0.23;35.04;103060.31;4944164;28;99472;-73
2022/03/22 07:42:24;;;;;;;1999.90;999.90;;;;;;;0.27;35.10;103058.19;4943053;28;96911;-74
2022/03/22 07:44:53;;;;;;;1999.90;999.90;;;;;;;0.69;34.69;103057.13;4925614;28;97509;-73
2022/03/22 07:47:20;;;;;;;1999.90;999.90;;;;;;;0.58;35.11;103059.47;4944240;28;99359;-74
2022/03/22 07:55:20;;;;;;;1999.90;999.90;;;;;;;0.73;34.53;103066.22;4945778;28;97511;-73
2022/03/22 07:57:48;;;;;;;1999.90;999.90;;;;;;;0.78;34.62;103067.56;4949129;28;97605;-73
2022/03/22 08:00:18;;;;;;;1999.90;999.90;;;;;;;0.86;34.82;103066.63;4948518;28;97588;-74
2022/03/22 08:02:57;;;;;;;1999.90;999.90;;;;;;;0.91;34.91;103062.75;4931105;28;97229;-73
2022/03/22 08:05:26;;;;;;;1999.90;999.90;;;;;;;1.00;34.34;103066.25;4930261;28;96748;-73
2022/03/22 08:07:54;;;;;;;1999.90;999.90;;;;;;;1.08;34.80;103065.28;4947743;28;99886;-73
2022/03/22 08:10:34;;;;;;;1999.90;999.90;;;;;;;1.17;34.38;103063.53;4947559;28;100882;-71
2022/03/22 08:13:03;;;;;;;1999.90;999.90;;;;;;;1.29;34.37;103055.91;4946493;28;96874;-72
2022/03/22 08:15:32;;;;;;;1999.90;999.90;;;;;;;1.38;33.79;103068.19;4948006;28;97380;-72
2022/03/22 08:18:00;;;;;;;1999.90;999.90;;;;;;;1.45;34.27;103061.81;4947782;28;97665;-72
2022/03/22 08:20:30;;;;;;;1999.90;999.90;;;;;;;1.54;34.11;103063.63;4947650;28;98153;-72
2022/03/22 08:22:59;;;;;;;1999.90;999.90;;;;;;;1.94;33.18;103069.16;4944844;28;97361;-71
2022/03/22 08:25:28;;;;;;;1999.90;999.90;;;;;;;2.14;33.88;103064.03;4945769;28;97443;-73
2022/03/22 08:27:59;;;;;;;1999.90;999.90;;;;;;;2.04;33.87;103068.28;4948321;28;97859;-72
2022/03/22 08:30:27;;;;;;;1999.90;999.90;;;;;;;2.09;33.81;103059.16;4946938;28;98679;-71
2022/03/22 08:32:58;;;;;;;1999.90;999.90;;;;;;;2.16;33.77;103058.94;4947858;28;96936;-72
2022/03/22 08:35:28;;;;;;;1999.90;999.90;;;;;;;2.23;33.59;103057.78;4947356;28;97156;-71
2022/03/22 08:37:56;;;;;;;1999.90;999.90;;;;;;;2.31;33.64;103056.78;4947384;28;98160;-72
2022/03/22 08:40:25;;;;;;;1999.90;999.90;;;;;;;2.39;33.39;103053.13;4962253;28;101293;-73
2022/03/22 08:42:57;;;;;;;1999.90;999.90;;;;;;;2.45;33.06;103049.38;4928882;28;97230;-72
2022/03/22 08:45:27;;;;;;;1999.90;999.90;;;;;;;2.55;33.74;103051.06;4949090;28;97267;-73
2022/03/22 08:47:59;;;;;;;1999.90;999.90;;;;;;;2.61;33.09;103055.19;4946393;28;99032;-72
2022/03/22 08:50:26;;;;;;;1999.90;999.90;;;;;;;2.70;33.92;103052.44;4945319;28;99496;-73
2022/03/22 08:52:56;;;;;;;1999.90;999.90;;;;;;;2.77;33.17;103046.94;4946721;28;97219;-73
2022/03/22 08:55:25;;;;;;;1999.90;999.90;;;;;;;2.83;33.42;103055.38;4947206;28;97060;-72
2022/03/22 08:57:53;;;;;;;1999.90;999.90;;;;;;;2.91;33.61;103050.00;4947256;28;99298;-73
2022/03/22 09:00:22;;;;;;;1999.90;999.90;;;;;;;2.99;33.12;103048.06;4946274;28;97699;-72
2022/03/22 09:02:51;;;;;;;1999.90;999.90;;;;;;;3.06;33.31;103053.06;4946791;28;97516;-73
2022/03/22 09:08:06;;;;;;;1999.90;999.90;;;;;;;3.22;32.92;103043.09;4946577;28;97623;-72
2022/03/22 09:10:37;;;;;;;1999.90;999.90;;;;;;;3.54;32.38;103046.78;4945646;28;97606;-73
2022/03/22 09:13:06;;;;;;;1999.90;999.90;;;;;;;3.50;32.54;103044.66;4947016;28;96914;-72
2022/03/22 09:15:37;;;;;;;1999.90;999.90;;;;;;;3.55;32.31;103043.34;4945995;28;97506;-73
2022/03/22 09:18:12;;;;;;;1999.90;999.90;;;;;;;3.61;32.61;103035.97;4946693;28;99496;-73
2022/03/22 09:20:41;;;;;;;1999.90;999.90;;;;;;;3.68;32.56;103035.72;4944896;28;97531;-73
2022/03/22 09:23:12;;;;;;;1999.90;999.90;;;;;;;3.76;32.35;103034.69;4944441;28;96918;-73
2022/03/22 09:25:41;;;;;;;1999.90;999.90;;;;;;;3.85;32.15;103037.16;4947475;28;97026;-73
2022/03/22 09:28:10;;;;;;;1999.90;999.90;;;;;;;3.92;31.97;103031.59;4947952;28;98628;-73
2022/03/22 09:30:39;;;;;;;1999.90;999.90;;;;;;;3.98;31.78;103019.88;4963708;28;100457;-73
2022/03/22 09:33:08;;;;;;;1999.90;999.90;;;;;;;4.06;31.90;103017.91;4946445;28;96967;-72
2022/03/22 09:35:36;;;;;;;1999.90;999.90;;;;;;;4.13;32.09;103025.50;4947500;28;96839;-73
2022/03/22 09:38:05;;;;;;;1999.90;999.90;;;;;;;4.21;31.83;103019.13;4947494;28;98644;-73
2022/03/22 09:40:33;;;;;;;1999.90;999.90;;;;;;;4.29;31.76;103012.78;4944946;28;97682;-73
2022/03/22 09:43:01;;;;;;;1999.90;999.90;;;;;;;4.38;31.41;103023.16;4943910;28;96911;-72
2022/03/22 09:45:30;;;;;;;1999.90;999.90;;;;;;;4.45;31.49;103014.94;4930584;28;96960;-73
2022/03/22 09:47:59;;;;;;;1999.90;999.90;;;;;;;4.53;31.50;103011.22;4947158;28;98868;-73
2022/03/22 09:53:13;;;;;;;1999.90;999.90;;;;;;;4.69;31.18;102998.47;4945528;28;96757;-73
2022/03/22 09:55:40;;;;;;;1999.90;999.90;;;;;;;4.78;31.48;103001.84;4945686;28;97341;-73
2022/03/22 09:58:08;;;;;;;1999.90;999.90;;;;;;;4.86;31.09;102995.47;4946870;28;97866;-72
2022/03/22 10:00:38;;;;;;;1999.90;999.90;;;;;;;4.94;31.00;102995.25;4945266;28;100246;-72
2022/03/22 10:03:06;;;;;;;1999.90;999.90;;;;;;;5.02;31.15;102996.84;4944594;28;97606;-73
2022/03/22 10:05:34;;;;;;;1999.90;999.90;;;;;;;5.12;31.00;103001.09;4946323;28;99041;-74
2022/03/22 10:08:07;;;;;;;1999.90;999.90;;;;;;;5.21;30.88;103005.38;4946684;28;98315;-72
2022/03/22 10:10:53;;;;;;;1999.90;999.90;;;;;;;5.32;30.71;102993.00;4944572;28;97817;-73
2022/03/22 10:13:21;;;;;;;1999.90;999.90;;;;;;;5.43;30.88;102985.94;4945661;28;96925;-73
2022/03/22 10:15:49;;;;;;;1999.90;999.90;;;;;;;5.51;30.49;102987.41;4945907;28;96923;-73
2022/03/22 10:18:23;;;;;;;1999.90;999.90;;;;;;;5.60;30.03;102982.84;4961425;28;99354;-73
2022/03/22 10:20:58;;;;;;;1999.90;999.90;;;;;;;5.69;30.17;102981.81;4945219;28;97529;-73
2022/03/22 10:23:26;;;;;;;1999.90;999.90;;;;;;;5.75;30.27;102982.28;4945120;28;99705;-73
2022/03/22 10:26:07;;;;;;;1999.90;999.90;;;;;;;5.83;30.01;102978.50;4947478;28;97765;-72
2022/03/22 10:28:35;;;;;;;1999.90;999.90;;;;;;;5.91;30.12;102972.06;4947130;28;99419;-72
2022/03/22 10:31:03;;;;;;;1999.90;999.90;;;;;;;6.00;29.91;102967.47;4946790;28;97558;-72
2022/03/22 10:33:31;;;;;;;1999.90;999.90;;;;;;;6.08;30.09;102970.69;4944271;28;97530;-72
2022/03/22 10:36:00;;;;;;;1999.90;999.90;;;;;;;6.16;30.04;102973.06;4945681;28;97630;-72
2022/03/22 10:38:29;;;;;;;1999.90;999.90;;;;;;;6.27;29.97;102973.00;4945530;28;100795;-72
2022/03/22 10:40:56;;;;;;;1999.90;999.90;;;;;;;6.34;29.60;102959.41;4944347;28;99192;-72
2022/03/22 10:43:26;;;;;;;1999.90;999.90;;;;;;;6.41;29.65;102956.41;4944531;28;97601;-72
2022/03/22 10:46:00;;;;;;;1999.90;999.90;;;;;;;6.48;29.61;102964.88;4945684;28;96729;-73
2022/03/22 10:48:32;;;;;;;1999.90;999.90;;;;;;;6.58;29.42;102955.91;4947049;28;97797;-72
2022/03/22 10:51:01;;;;;;;1999.90;999.90;;;;;;;6.67;29.20;102959.19;4961674;28;100602;-73
2022/03/22 10:53:30;;;;;;;1999.90;999.90;;;;;;;6.83;29.25;102959.47;4946301;28;96641;-72
2022/03/22 10:55:58;;;;;;;1999.90;999.90;;;;;;;6.91;29.32;102952.97;4946910;28;97516;-72
2022/03/22 10:58:28;;;;;;;1999.90;999.90;;;;;;;6.93;29.20;102951.34;4946579;28;98679;-72
2022/03/22 11:00:57;;;;;;;1999.90;999.90;;;;;;;7.02;29.08;102946.69;4943855;28;97659;-71
2022/03/22 11:03:26;;;;;;;1999.90;999.90;;;;;;;7.08;28.91;102955.09;4944335;28;98010;-72
2022/03/22 11:05:55;;;;;;;1999.90;999.90;;;;;;;7.14;29.25;102948.47;4946575;28;96808;-74
2022/03/22 11:08:25;;;;;;;1999.90;999.90;;;;;;;7.22;29.08;102941.06;4946583;28;97683;-72
2022/03/22 11:10:54;;;;;;;1999.90;999.90;;;;;;;7.30;28.56;102950.47;4945922;28;97943;-73
2022/03/22 11:13:22;;;;;;;1999.90;999.90;;;;;;;7.35;29.08;102938.44;4945432;28;96769;-72
2022/03/22 11:15:52;;;;;;;1999.90;999.90;;;;;;;7.41;28.46;102938.91;4944970;28;97214;-72
2022/03/22 11:18:21;;;;;;;1999.90;999.90;;;;;;;7.51;28.41;102935.16;4945879;28;99212;-72
2022/03/22 11:20:49;;;;;;;1999.90;999.90;;;;;;;7.58;28.40;102940.97;4945614;28;98667;-72
2022/03/22 11:23:19;;;;;;;1999.90;999.90;;;;;;;7.68;28.38;102943.41;4926595;28;96751;-72
2022/03/22 11:25:47;;;;;;;1999.90;999.90;;;;;;;7.75;28.46;102934.13;4946365;28;97329;-72
2022/03/22 11:28:19;;;;;;;1999.90;999.90;;;;;;;7.82;28.17;102928.44;4927995;28;99964;-73